Etusivu
METAR-TAF:

METAR-TAF

Lentoasemat :

Fort McMurrayn lentoasema

Fort McMurray, Alberta, Kanada

Leveyspiiri: 56-39N, Pituuspiiri: 111-13W, korkeus merenpinnasta: 369 m

Tämänhetkinen sää

Tämä raportti tehtiin 1 tunti ja 8 minuuttia sitten, kello 04.00 UTC
Tuuli 2 kn etelästä
Lämpötila -7°C
Kosteus 93%
Ilmanpaine 995 hPa
Näkyvyys: 14.5 km
Hajonneita pilviä 8000 ft:n korkeudessa
Pilvistä 16000 ft:n korkeudessa

METAR: CYMM 190400Z AUTO 18002KT 9SM BKN080 OVC160 M07/M08 A2939 RMK SLP980

Aika: 22:08 (05:08 UTC)

Sääennuste

Tämä raportti tehtiin 4 tuntia ja 29 minuuttia sitten, kello 00.39 UTC
Ennuste voimassa 19. päivästä klo 01 UTC - 19. päivään klo 13 UTC
Tuuli 3 kn eri suunnista
Näkyvyys: 10 km
Hajonneita pilviä 10000 ft:n korkeudessa
From 19. päivästä klo 0700 UTC
Tuuli 5 kn lounaasta
Näkyvyys: 10 km
Muutamia pilviä 10000 ft:n korkeudessa

TAF: CYMM 190039Z 1901/1913 VRB03KT P6SM BKN100 FM190700 22005KT P6SM FEW100 RMK FCST BASED ON AUTO OBS. NXT FCST BY 190700Z

Säähavainnot ja -ennusteet yli 4000 lentoasemalta (METAR- ja TAF-raportit).

Käytössä olevat sääasemat on merkitty karttaan keltaisilla ja punaisilla pisteillä.

Aseta hiiri pisteen päälle nähdäksesi sääaseman nimen.

Klikkaa sitten nähdäksesi säähavainnot ja -ennusteet.

Kartan vaihtaminen: klikkaa mustalla rastilla varustettuja vihreitä pisteitä, niin voit zoomata sisään; viivalla varustettua vihreää pistettä, niin voit zoomata ulos tai vihreitä nuolia, niin pääset viereisille kartoille.


METAR-TAF: